createdAt,value
2022-10-01T00:00:02.259Z,36.80
2022-10-01T00:05:25.256Z,38.50
2022-10-01T00:10:30.435Z,38.20
2022-10-01T00:15:33.419Z,35.20
2022-10-01T00:20:40.473Z,34.10
2022-10-01T00:25:43.942Z,32.60
2022-10-01T00:30:48.184Z,32.80
2022-10-01T00:35:54.873Z,31.60
2022-10-01T00:40:58.765Z,29.90
2022-10-01T00:46:13.772Z,26.60
2022-10-01T00:51:16.885Z,30.70
2022-10-01T00:56:19.893Z,26.50
2022-10-01T01:01:24.766Z,37.60
2022-10-01T01:06:27.810Z,31.20
2022-10-01T01:11:58.813Z,31.90
2022-10-01T01:17:10.979Z,36.50
2022-10-01T01:22:15.478Z,29.30
2022-10-01T01:27:45.176Z,36.80
2022-10-01T01:33:04.816Z,34.10
2022-10-01T01:38:14.362Z,31.50
2022-10-01T01:43:24.304Z,32.40
2022-10-01T01:48:29.490Z,35.00
2022-10-01T01:53:32.601Z,34.60
2022-10-01T01:58:36.472Z,39.00
2022-10-01T02:03:39.432Z,36.70
2022-10-01T02:08:58.311Z,31.50
2022-10-01T02:14:22.822Z,26.10
2022-10-01T02:19:36.328Z,28.90
2022-10-01T02:24:57.100Z,33.60
2022-10-01T02:35:12.243Z,27.80
2022-10-01T02:40:18.923Z,30.30
2022-10-01T02:45:25.096Z,33.50
2022-10-01T02:50:35.015Z,27.70
2022-10-01T02:55:39.924Z,32.70
2022-10-01T03:00:42.823Z,36.60
2022-10-01T03:05:45.829Z,38.80
2022-10-01T03:10:48.732Z,36.30
2022-10-01T03:15:51.888Z,36.30
2022-10-01T03:20:54.845Z,38.80
2022-10-01T03:25:57.859Z,38.10
2022-10-01T03:31:06.266Z,39.90
2022-10-01T03:36:09.188Z,43.00
2022-10-01T03:41:14.551Z,48.00
2022-10-01T03:46:18.273Z,41.30
2022-10-01T03:51:21.178Z,36.00
2022-10-01T03:56:26.231Z,46.20
2022-10-01T04:01:29.287Z,46.40
2022-10-01T04:06:32.934Z,44.60
2022-10-01T04:11:36.820Z,46.50
2022-10-01T04:16:40.048Z,36.10
2022-10-01T04:21:43.106Z,31.40
2022-10-01T04:26:46.010Z,42.80
2022-10-01T04:31:48.950Z,41.10
2022-10-01T04:36:51.920Z,32.40
2022-10-01T04:41:54.931Z,35.40
2022-10-01T04:46:57.881Z,43.30
2022-10-01T04:52:01.349Z,45.10
2022-10-01T04:57:04.458Z,41.60
2022-10-01T05:02:07.435Z,34.50
2022-10-01T05:07:10.473Z,44.10
2022-10-01T05:12:13.375Z,40.40
2022-10-01T05:17:17.404Z,41.90
2022-10-01T05:22:20.173Z,42.50
2022-10-01T05:27:23.109Z,36.50
2022-10-01T05:32:26.015Z,30.80
2022-10-01T05:37:28.918Z,30.60
2022-10-01T05:42:31.720Z,27.90
2022-10-01T05:47:34.623Z,27.70
2022-10-01T05:52:37.531Z,25.20
2022-10-01T05:57:40.435Z,25.50
2022-10-01T06:02:43.630Z,27.00
2022-10-01T06:07:48.726Z,24.20
2022-10-01T06:12:52.010Z,36.50
2022-10-01T06:17:55.126Z,18.40
2022-10-01T06:22:58.566Z,20.40
2022-10-01T06:28:02.305Z,18.50
2022-10-01T06:33:16.017Z,19.60
2022-10-01T06:38:21.309Z,21.70
2022-10-01T06:43:26.680Z,18.00
2022-10-01T06:48:31.125Z,23.80
2022-10-01T06:53:33.988Z,19.60
2022-10-01T06:58:37.501Z,18.40
2022-10-01T07:03:40.421Z,18.00
2022-10-01T07:08:43.718Z,15.90
2022-10-01T07:13:49.990Z,13.50
2022-10-01T07:18:55.362Z,14.10
2022-10-01T07:23:58.270Z,13.30
2022-10-01T07:29:01.534Z,11.80
2022-10-01T07:34:04.396Z,11.40
2022-10-01T07:39:09.862Z,12.50
2022-10-01T07:44:12.870Z,14.70
2022-10-01T07:49:19.781Z,8.80
2022-10-01T07:54:23.447Z,9.80
2022-10-01T07:59:27.402Z,10.00
2022-10-01T08:04:50.792Z,8.10
2022-10-01T08:09:54.204Z,10.40
2022-10-01T08:14:57.284Z,8.30
2022-10-01T08:20:00.420Z,9.90
2022-10-01T08:25:03.780Z,9.30
2022-10-01T08:30:07.424Z,10.80
2022-10-01T08:35:10.427Z,10.20
2022-10-01T08:40:13.297Z,9.90
2022-10-01T08:45:27.807Z,9.20
2022-10-01T08:50:30.661Z,12.80
2022-10-01T08:55:37.586Z,11.70
2022-10-01T09:00:44.785Z,11.10
2022-10-01T09:05:59.734Z,12.00
2022-10-01T09:11:12.751Z,12.60
2022-10-01T09:16:37.446Z,11.50
2022-10-01T09:21:55.493Z,12.00
2022-10-01T09:26:58.355Z,11.30
2022-10-01T09:32:04.089Z,11.00
2022-10-01T09:37:15.423Z,10.30
2022-10-01T09:42:18.737Z,13.60
2022-10-01T09:47:26.832Z,10.70
2022-10-01T09:52:39.311Z,9.20
2022-10-01T09:57:47.872Z,9.00
2022-10-01T10:02:52.454Z,9.90
2022-10-01T10:08:00.214Z,9.40
2022-10-01T10:13:05.244Z,10.60
2022-10-01T10:18:24.067Z,8.80
2022-10-01T10:23:29.512Z,7.50
2022-10-01T10:28:44.654Z,8.00
2022-10-01T10:33:54.234Z,8.80
2022-10-01T10:38:59.027Z,11.90
2022-10-01T10:44:07.582Z,10.20
2022-10-01T10:49:21.079Z,10.20
2022-10-01T10:54:40.824Z,9.40
2022-10-01T10:59:56.291Z,10.00
2022-10-01T11:05:20.485Z,11.20
2022-10-01T11:10:42.118Z,11.50
2022-10-01T11:16:20.303Z,16.10
2022-10-01T11:21:35.647Z,20.50
2022-10-01T11:26:53.404Z,11.30
2022-10-01T11:32:19.671Z,11.60
2022-10-01T11:37:25.525Z,23.00
2022-10-01T11:42:36.765Z,11.80
2022-10-01T11:47:54.885Z,10.50
2022-10-01T11:53:09.765Z,10.60
2022-10-01T11:58:43.294Z,9.90
2022-10-01T12:03:59.316Z,9.20
2022-10-01T12:09:32.723Z,10.70
2022-10-01T12:14:44.845Z,9.90
2022-10-01T12:19:52.246Z,14.90
2022-10-01T12:24:55.457Z,12.70
2022-10-01T12:30:10.151Z,17.10
2022-10-01T12:35:28.005Z,13.70
2022-10-01T12:40:38.622Z,12.50
2022-10-01T12:45:54.478Z,12.60
2022-10-01T12:51:00.089Z,16.10
2022-10-01T12:56:31.321Z,10.50
2022-10-01T13:02:14.731Z,10.10
2022-10-01T13:07:49.220Z,11.10
2022-10-01T13:13:06.651Z,10.40
2022-10-01T13:18:12.375Z,10.10
2022-10-01T13:23:30.495Z,12.50
2022-10-01T13:28:57.669Z,10.60
2022-10-01T13:34:01.905Z,10.70
2022-10-01T13:39:04.842Z,12.10
2022-10-01T13:44:08.126Z,10.10
2022-10-01T13:49:25.325Z,10.40
2022-10-01T13:54:33.285Z,9.20
2022-10-01T13:59:38.297Z,10.00
2022-10-01T14:04:43.872Z,9.10
2022-10-01T14:09:51.633Z,8.60
2022-10-01T14:15:19.223Z,9.80
2022-10-01T14:20:35.657Z,8.40
2022-10-01T14:26:03.409Z,8.90
2022-10-01T14:31:35.349Z,7.60
2022-10-01T14:36:53.640Z,8.60
2022-10-01T14:41:58.215Z,8.70
2022-10-01T14:47:21.897Z,9.20
2022-10-01T14:52:30.123Z,9.20
2022-10-01T14:58:00.578Z,8.30
2022-10-01T15:03:15.790Z,8.90
2022-10-01T15:08:23.521Z,7.90
2022-10-01T15:13:32.431Z,9.10
2022-10-01T15:18:36.912Z,9.60
2022-10-01T15:23:40.912Z,8.80
2022-10-01T15:28:44.625Z,10.60
2022-10-01T15:33:47.904Z,11.10
2022-10-01T15:38:51.740Z,10.60
2022-10-01T15:43:54.817Z,11.60
2022-10-01T15:49:17.570Z,11.10
2022-10-01T15:54:20.548Z,12.00
2022-10-01T15:59:23.659Z,11.10
2022-10-01T16:04:26.856Z,10.90
2022-10-01T16:09:30.810Z,13.80
2022-10-01T16:14:45.211Z,12.90
2022-10-01T16:19:50.734Z,10.10
2022-10-01T16:25:01.824Z,12.00
2022-10-01T16:30:07.805Z,13.30
2022-10-01T16:35:21.057Z,13.20
2022-10-01T16:40:26.721Z,13.90
2022-10-01T16:45:36.771Z,11.40
2022-10-01T16:50:40.209Z,14.00
2022-10-01T16:55:44.207Z,13.70
2022-10-01T17:00:47.103Z,14.30
2022-10-01T17:05:50.259Z,11.80
2022-10-01T17:10:58.796Z,16.10
2022-10-01T17:16:06.094Z,17.20
2022-10-01T17:21:09.732Z,24.80
2022-10-01T17:26:12.650Z,37.30
2022-10-01T17:31:18.008Z,40.50
2022-10-01T17:36:21.298Z,20.70
2022-10-01T17:41:24.304Z,30.70
2022-10-01T17:46:27.413Z,82.80
2022-10-01T17:51:30.520Z,26.90
2022-10-01T17:56:38.409Z,21.80
2022-10-01T18:01:41.857Z,14.70
2022-10-01T18:06:45.023Z,13.90
2022-10-01T18:11:51.916Z,12.70
2022-10-01T18:16:54.911Z,11.90
2022-10-01T18:21:59.902Z,11.90
2022-10-01T18:27:02.935Z,12.20
2022-10-01T18:32:17.842Z,15.50
2022-10-01T18:37:29.634Z,16.40
2022-10-01T18:42:44.577Z,15.50
2022-10-01T18:47:53.365Z,16.20
2022-10-01T18:53:08.552Z,16.10
2022-10-01T18:58:33.264Z,18.30
2022-10-01T19:04:00.443Z,15.40
2022-10-01T19:09:17.270Z,16.20
2022-10-01T19:14:37.991Z,17.00
2022-10-01T19:19:52.984Z,17.20
2022-10-01T19:25:15.398Z,16.10
2022-10-01T19:30:20.070Z,18.70
2022-10-01T19:35:27.905Z,18.10
2022-10-01T19:40:55.285Z,19.70
2022-10-01T19:46:09.352Z,17.40
2022-10-01T19:51:16.182Z,18.10
2022-10-01T19:56:26.164Z,20.50
2022-10-01T20:01:38.471Z,17.70
2022-10-01T20:06:44.723Z,19.50
2022-10-01T20:12:01.760Z,23.90
2022-10-01T20:17:23.506Z,19.80
2022-10-01T20:22:58.667Z,24.10
2022-10-01T20:28:19.461Z,23.90
2022-10-01T20:33:36.020Z,26.20
2022-10-01T20:38:45.349Z,24.10
2022-10-01T20:43:52.982Z,24.90
2022-10-01T20:49:18.305Z,21.30
2022-10-01T20:54:36.167Z,20.30
2022-10-01T20:59:51.649Z,21.10
2022-10-01T21:05:06.631Z,18.50
2022-10-01T21:10:46.322Z,22.40
2022-10-01T21:16:23.375Z,19.50
2022-10-01T21:21:55.411Z,18.10
2022-10-01T21:27:35.798Z,16.40
2022-10-01T21:33:02.083Z,13.60
2022-10-01T21:38:28.099Z,11.40
2022-10-01T21:44:12.473Z,9.80
2022-10-01T21:49:46.097Z,10.50
2022-10-01T21:55:06.204Z,9.10
2022-10-01T22:00:28.976Z,8.30
2022-10-01T22:05:41.173Z,8.30
2022-10-01T22:10:51.064Z,7.50
2022-10-01T22:15:59.393Z,7.00
2022-10-01T22:21:08.750Z,7.60
2022-10-01T22:26:17.590Z,9.20
2022-10-01T22:31:26.203Z,7.00
2022-10-01T22:36:41.842Z,7.40
2022-10-01T22:41:56.689Z,9.00
2022-10-01T22:47:02.595Z,9.00
2022-10-01T22:52:54.703Z,6.10
2022-10-01T22:58:18.544Z,6.30
2022-10-01T23:03:41.727Z,6.80
2022-10-01T23:09:18.322Z,9.00
2022-10-01T23:14:42.527Z,8.50
2022-10-01T23:20:06.875Z,7.60
2022-10-01T23:25:18.820Z,7.30
2022-10-01T23:30:22.167Z,7.30
2022-10-01T23:35:42.811Z,8.80
2022-10-01T23:46:07.595Z,9.60
2022-10-01T23:51:23.237Z,9.60
2022-10-01T23:56:48.882Z,9.90
